コート・ダジュール空港(ニース)の過去48時間の天気

コート・ダジュール空港(ニース) (Nice)

現在時刻: 8/6 23:43 CEST (8/6 21:43 UTC) 以下の時間は現地時間です。

過去48時間のMETAR気象情報
時間 風向 風速(m/s) 視程 気温(℃) 湿度(%) 気圧(hPa) 天気現象
6 23:30 北北西 4 10km以上 25 57 1017
6 23:00 北北西 3 10km以上 25 65 1017
6 22:30 北西 2 10km以上 26 54 1017
6 22:00 西 2 10km以上 26 61 1017
6 21:30 西南西 3 10km以上 26 54 1017
6 21:00 南西 3 10km以上 27 54 1016
6 20:30 南南西 4 10km以上 27 62 1016
6 20:00 3 10km以上 27 66 1016
6 19:30 南南西 3 10km以上 27 66 1016
6 19:00 南南西 3 10km以上 28 62 1016
6 18:30 4 10km以上 27 62 1016
6 18:00 4 10km以上 28 62 1016
6 17:30 4 10km以上 28 58 1016
6 17:00 3 10km以上 28 62 1016
6 16:30 南南東 3 10km以上 28 58 1016
6 16:00 南南東 3 10km以上 28 58 1016
6 15:30 南南東 3 10km以上 29 52 1016
6 15:00 4 10km以上 29 52 1016
6 14:30 4 10km以上 28 51 1016
6 14:00 南南東 3 10km以上 29 48 1016
6 13:30 3 10km以上 29 45 1016
6 13:00 3 10km以上 29 45 1016
6 12:30 南南東 3 10km以上 29 43 1016
6 12:00 3 10km以上 29 43 1016
6 11:30 2 10km以上 29 37 1016
6 11:00 3 10km以上 28 37 1016
6 10:30 不定 2 10km以上 28 37 1016
6 10:00 北北西 3 10km以上 28 37 1016
6 09:30 北北西 4 10km以上 26 42 1016
6 09:00 北北西 5 10km以上 25 44 1015
6 08:30 北北西 5 10km以上 24 47 1015
6 07:30 北北西 5 10km以上 22 50 1015
6 07:00 北北西 4 10km以上 22 50 1014
6 06:30 北北西 5 10km以上 22 50 1014
6 06:00 4 10km以上 22 50 1014
6 05:30 北北西 4 10km以上 23 47 1014
6 05:00 北北西 5 10km以上 23 47 1014
6 04:30 北北西 5 10km以上 23 47 1014
6 04:00 北北西 5 10km以上 23 47 1014
6 03:30 北北西 4 10km以上 23 47 1014
6 03:00 北北西 5 10km以上 23 50 1014
6 02:30 北北西 5 10km以上 23 47 1014
6 02:00 北北西 5 10km以上 23 47 1014
6 01:30 北北西 5 10km以上 23 50 1014
6 01:00 北北西 5 10km以上 23 50 1014
6 00:30 北北西 4 10km以上 23 53 1014
6 00:00 北北西 4 10km以上 23 53 1014
5 23:30 3 10km以上 24 54 1014
5 23:00 北北西 2 10km以上 24 57 1014
5 22:30 西 2 10km以上 24 65 1014
5 22:00 南西 2 10km以上 25 69 1014
5 21:30 3 10km以上 26 61 1013
LFMN 062130Z 33007KT CAVOK 25/16 Q1017 NOSIG
LFMN 062100Z 33006KT CAVOK 25/18 Q1017 NOSIG
LFMN 062030Z 31004KT 280V340 CAVOK 26/16 Q1017 NOSIG
LFMN 062000Z 27003KT CAVOK 26/18 Q1017 NOSIG
LFMN 061930Z 24005KT CAVOK 26/16 Q1017 NOSIG
LFMN 061900Z 22005KT CAVOK 27/17 Q1016 NOSIG
LFMN 061830Z 21007KT CAVOK 27/19 Q1016 NOSIG
LFMN 061800Z 19006KT CAVOK 27/20 Q1016 NOSIG
LFMN 061730Z 20006KT CAVOK 27/20 Q1016 NOSIG
LFMN 061700Z 20006KT CAVOK 28/20 Q1016 NOSIG
LFMN 061630Z 19007KT CAVOK 27/19 Q1016 NOSIG
LFMN 061600Z 19007KT CAVOK 28/20 Q1016 NOSIG
LFMN 061530Z 19007KT CAVOK 28/19 Q1016 NOSIG
LFMN 061500Z 17006KT CAVOK 28/20 Q1016 NOSIG
LFMN 061430Z 16005KT CAVOK 28/19 Q1016 NOSIG
LFMN 061400Z 16005KT CAVOK 28/19 Q1016 NOSIG
LFMN 061330Z 16005KT CAVOK 29/18 Q1016 NOSIG
LFMN 061300Z 17007KT CAVOK 29/18 Q1016 NOSIG
LFMN 061230Z 17007KT CAVOK 28/17 Q1016 NOSIG
LFMN 061200Z 16006KT CAVOK 29/17 Q1016 NOSIG
LFMN 061130Z 18006KT CAVOK 29/16 Q1016 NOSIG
LFMN 061100Z 17005KT CAVOK 29/16 Q1016 NOSIG
LFMN 061030Z 16005KT CAVOK 29/15 Q1016 NOSIG
LFMN 061000Z 17005KT CAVOK 29/15 Q1016 NOSIG
LFMN 060930Z 18004KT CAVOK 29/13 Q1016 NOSIG
LFMN 060900Z 18005KT CAVOK 28/12 Q1016 NOSIG
LFMN 060830Z VRB03KT CAVOK 28/12 Q1016 NOSIG
LFMN 060800Z 33006KT 290V350 CAVOK 28/12 Q1016 NOSIG
LFMN 060730Z 33008KT CAVOK 26/12 Q1016 NOSIG
LFMN 060700Z 33009KT CAVOK 25/12 Q1015 NOSIG
LFMN 060630Z 33010KT CAVOK 24/12 Q1015 NOSIG
LFMN 060530Z 33009KT CAVOK 22/11 Q1015 NOSIG
LFMN 060500Z 33008KT CAVOK 22/11 Q1014 NOSIG
LFMN 060430Z 34009KT CAVOK 22/11 Q1014 NOSIG
LFMN 060400Z 35008KT CAVOK 22/11 Q1014 NOSIG
LFMN 060330Z 34008KT CAVOK 23/11 Q1014 NOSIG
LFMN 060300Z 33009KT CAVOK 23/11 Q1014 NOSIG
LFMN 060230Z 33009KT CAVOK 23/11 Q1014 NOSIG
LFMN 060200Z 33009KT 310V010 CAVOK 23/11 Q1014 NOSIG
LFMN 060130Z 34007KT CAVOK 23/11 Q1014 NOSIG
LFMN 060100Z 33009KT CAVOK 23/12 Q1014 NOSIG
LFMN 060030Z 34009KT CAVOK 23/11 Q1014 NOSIG
LFMN 060000Z 33010KT CAVOK 23/11 Q1014 NOSIG
LFMN 052330Z 33009KT CAVOK 23/12 Q1014 NOSIG
LFMN 052300Z 33009KT CAVOK 23/12 Q1014 NOSIG
LFMN 052230Z 33008KT CAVOK 23/13 Q1014 NOSIG
LFMN 052200Z 33007KT CAVOK 23/13 Q1014 NOSIG
LFMN 052130Z 36005KT CAVOK 24/14 Q1014 NOSIG
LFMN 052100Z 33004KT 300V360 CAVOK 24/15 Q1014 NOSIG
LFMN 052030Z 28004KT CAVOK 24/17 Q1014 NOSIG
LFMN 052000Z 22004KT 9999 FEW100 25/19 Q1014 NOSIG
LFMN 051930Z 19005KT 9999 FEW100 26/18 Q1013 NOSIG